TimeCDT,TemperatureF,Dew PointF,Humidity,Sea Level PressureIn,VisibilityMPH,Wind Direction,Wind SpeedMPH,Gust SpeedMPH,PrecipitationIn,Events,Conditions,WindDirDegrees,DateUTC
12:15 AM,49.3,48.2,96,30.17,7.0,Calm,Calm,-,N/A,,Clear,0,2013-03-16 05:15:00
12:35 AM,47.8,47.3,98,30.16,7.0,Calm,Calm,-,N/A,,Clear,0,2013-03-16 05:35:00
12:55 AM,47.5,47.1,99,30.16,7.0,Calm,Calm,-,N/A,,Clear,0,2013-03-16 05:55:00
1:35 AM,48.0,48.0,100,30.14,7.0,Calm,Calm,-,N/A,,Clear,0,2013-03-16 06:35:00
1:55 AM,47.3,47.3,100,30.12,7.0,Calm,Calm,-,N/A,,Clear,0,2013-03-16 06:55:00
2:15 AM,46.8,46.8,100,30.12,7.0,Calm,Calm,-,N/A,,Clear,0,2013-03-16 07:15:00
2:35 AM,47.3,47.3,100,30.11,7.0,Calm,Calm,-,N/A,,Clear,0,2013-03-16 07:35:00
3:15 AM,46.8,46.8,100,30.09,1.0,Calm,Calm,-,N/A,,Mist,0,2013-03-16 08:15:00
3:35 AM,46.6,46.6,100,30.09,7.0,Calm,Calm,-,N/A,,Clear,0,2013-03-16 08:35:00
4:15 AM,48.6,48.6,100,30.07,0.2,South,3.5,-,N/A,Rain,Heavy Rain,170,2013-03-16 09:15:00
4:35 AM,52.3,52.3,100,30.07,4.0,South,4.6,-,N/A,,Clear,170,2013-03-16 09:35:00
4:55 AM,55.4,55.4,100,30.07,7.0,South,3.5,-,N/A,,Clear,170,2013-03-16 09:55:00
5:15 AM,54.5,54.5,100,30.06,7.0,South,5.8,-,N/A,,Clear,170,2013-03-16 10:15:00
5:35 AM,55.2,55.2,100,30.06,7.0,South,4.6,-,N/A,,Clear,170,2013-03-16 10:35:00
5:50 AM,55.4,55.4,100,30.07,7.0,South,9.2,-,N/A,,Clear,180,2013-03-16 10:50:00
5:55 AM,56.5,56.5,100,30.06,7.0,South,3.5,-,N/A,,Clear,170,2013-03-16 10:55:00
6:15 AM,56.5,56.3,99,30.07,10.0,South,4.6,-,N/A,,Clear,170,2013-03-16 11:15:00
6:50 AM,57.2,55.4,94,30.07,7.0,South,9.2,-,N/A,,Clear,180,2013-03-16 11:50:00
7:50 AM,57.2,57.2,100,30.09,7.0,South,9.2,-,N/A,,Clear,180,2013-03-16 12:50:00
8:50 AM,62.6,60.8,94,30.10,7.0,South,9.2,-,N/A,,Clear,180,2013-03-16 13:50:00
9:50 AM,68.0,59.0,73,30.10,7.0,South,13.8,-,N/A,,Scattered Clouds,180,2013-03-16 14:50:00
10:55 AM,71.6,57.2,60,30.10,7.0,South,13.8,-,N/A,,Scattered Clouds,180,2013-03-16 15:55:00
11:50 AM,71.6,57.2,60,30.10,7.0,SW,10.4,-,N/A,,Mostly Cloudy,230,2013-03-16 16:50:00
12:50 PM,71.6,57.2,60,30.10,7.0,SSW,8.1,-,N/A,,Mostly Cloudy,210,2013-03-16 17:50:00
1:55 PM,73.4,53.6,50,30.05,7.0,SW,11.5,-,N/A,,Scattered Clouds,220,2013-03-16 18:55:00
2:50 PM,73.4,53.6,50,30.02,7.0,SSW,9.2,-,N/A,,Scattered Clouds,210,2013-03-16 19:50:00
3:50 PM,73.4,53.6,50,30.00,7.0,SSW,8.1,-,N/A,,Scattered Clouds,210,2013-03-16 20:50:00
5:50 PM,69.8,55.4,60,29.99,7.0,South,10.4,-,N/A,,Scattered Clouds,190,2013-03-16 22:50:00
6:50 PM,69.8,57.2,64,29.99,7.0,SSE,8.1,-,N/A,,Scattered Clouds,160,2013-03-16 23:50:00
7:15 PM,66.9,58.1,73,29.98,7.0,SSE,6.9,-,N/A,,Mostly Cloudy,150,2013-03-17 00:15:00
7:35 PM,65.5,58.1,77,29.99,7.0,SSE,8.1,-,N/A,,Scattered Clouds,160,2013-03-17 00:35:00
7:55 PM,64.0,59.0,84,29.99,7.0,SSE,5.8,-,N/A,,Clear,150,2013-03-17 00:55:00
8:35 PM,62.8,59.0,87,29.99,10.0,SSE,5.8,-,N/A,,Clear,160,2013-03-17 01:35:00
8:55 PM,62.8,59.0,87,30.00,10.0,SSE,5.8,-,N/A,,Clear,150,2013-03-17 01:55:00
9:15 PM,62.2,59.0,89,30.00,10.0,SSE,5.8,-,N/A,,Clear,150,2013-03-17 02:15:00
9:35 PM,61.0,58.6,92,30.00,10.0,SSE,5.8,-,N/A,,Clear,150,2013-03-17 02:35:00
9:55 PM,61.2,58.6,91,30.00,10.0,SE,4.6,-,N/A,,Clear,140,2013-03-17 02:55:00
10:15 PM,60.8,58.5,92,30.00,10.0,SE,4.6,-,N/A,,Clear,140,2013-03-17 03:15:00
10:35 PM,61.0,58.8,93,30.00,7.0,SSE,4.6,-,N/A,,Clear,150,2013-03-17 03:35:00
10:55 PM,61.3,58.8,91,30.01,7.0,SSE,4.6,-,N/A,,Clear,160,2013-03-17 03:55:00
11:15 PM,61.9,59.0,90,30.00,10.0,SSE,5.8,-,N/A,,Clear,150,2013-03-17 04:15:00
11:35 PM,61.0,58.5,91,29.99,7.0,SE,4.6,-,N/A,,Clear,140,2013-03-17 04:35:00
11:55 PM,60.3,58.1,93,29.99,7.0,SE,4.6,-,N/A,,Clear,140,2013-03-17 04:55:00